sensor_id;sensor_type;location;lat;lon;timestamp;pressure;altitude;pressure_sealevel;temperature;humidity
29359;BME280;16347;53.232;6.556;2022-09-13T00:01:41;100945.91;;;20.90;67.82
29359;BME280;16347;53.232;6.556;2022-09-13T00:04:10;100957.22;;;20.82;67.93
29359;BME280;16347;53.232;6.556;2022-09-13T00:06:40;100954.13;;;20.97;68.05
29359;BME280;16347;53.232;6.556;2022-09-13T00:09:09;100954.75;;;20.99;67.70
29359;BME280;16347;53.232;6.556;2022-09-13T00:11:37;100943.41;;;21.07;67.53
29359;BME280;16347;53.232;6.556;2022-09-13T00:14:06;100941.50;;;21.08;67.58
29359;BME280;16347;53.232;6.556;2022-09-13T00:16:37;100941.25;;;20.84;68.31
29359;BME280;16347;53.232;6.556;2022-09-13T00:19:07;100933.53;;;20.68;68.76
29359;BME280;16347;53.232;6.556;2022-09-13T00:21:36;100925.31;;;20.48;69.56
29359;BME280;16347;53.232;6.556;2022-09-13T00:24:07;100923.09;;;20.32;70.58
29359;BME280;16347;53.232;6.556;2022-09-13T00:26:38;100920.53;;;20.37;70.61
29359;BME280;16347;53.232;6.556;2022-09-13T00:29:07;100915.78;;;20.51;70.60
29359;BME280;16347;53.232;6.556;2022-09-13T00:31:38;100912.78;;;20.53;70.57
29359;BME280;16347;53.232;6.556;2022-09-13T00:34:08;100906.41;;;20.52;69.82
29359;BME280;16347;53.232;6.556;2022-09-13T00:36:39;100907.25;;;20.53;70.59
29359;BME280;16347;53.232;6.556;2022-09-13T00:39:09;100907.25;;;20.53;70.59
29359;BME280;16347;53.232;6.556;2022-09-13T00:41:39;100901.50;;;20.54;69.87
29359;BME280;16347;53.232;6.556;2022-09-13T00:47:16;100905.16;;;20.48;70.14
29359;BME280;16347;53.232;6.556;2022-09-13T00:49:53;100893.34;;;20.34;71.25
29359;BME280;16347;53.232;6.556;2022-09-13T00:52:28;100889.28;;;20.37;71.25
29359;BME280;16347;53.232;6.556;2022-09-13T00:55:02;100894.25;;;20.15;71.36
29359;BME280;16347;53.232;6.556;2022-09-13T00:57:34;100894.91;;;20.17;72.30
29359;BME280;16347;53.232;6.556;2022-09-13T01:00:11;100883.00;;;20.17;72.05
29359;BME280;16347;53.232;6.556;2022-09-13T01:02:46;100874.69;;;20.23;72.52
29359;BME280;16347;53.232;6.556;2022-09-13T01:05:19;100865.94;;;20.26;72.52
29359;BME280;16347;53.232;6.556;2022-09-13T01:07:51;100873.00;;;20.16;72.64
29359;BME280;16347;53.232;6.556;2022-09-13T01:10:22;100878.50;;;20.22;72.38
29359;BME280;16347;53.232;6.556;2022-09-13T01:12:55;100867.69;;;20.27;72.32
29359;BME280;16347;53.232;6.556;2022-09-13T01:15:26;100874.88;;;20.28;72.36
29359;BME280;16347;53.232;6.556;2022-09-13T01:18:00;100865.94;;;20.33;71.72
29359;BME280;16347;53.232;6.556;2022-09-13T01:20:39;100865.09;;;20.32;71.76
29359;BME280;16347;53.232;6.556;2022-09-13T01:23:53;100868.22;;;20.42;71.78
29359;BME280;16347;53.232;6.556;2022-09-13T01:26:53;100861.63;;;20.43;71.03
29359;BME280;16347;53.232;6.556;2022-09-13T01:35:51;100853.50;;;20.48;70.64
29359;BME280;16347;53.232;6.556;2022-09-13T01:38:50;100848.53;;;20.64;70.61
29359;BME280;16347;53.232;6.556;2022-09-13T01:41:33;100839.38;;;20.63;70.34
29359;BME280;16347;53.232;6.556;2022-09-13T01:44:17;100836.53;;;20.45;70.53
29359;BME280;16347;53.232;6.556;2022-09-13T01:46:55;100839.44;;;20.57;70.29
29359;BME280;16347;53.232;6.556;2022-09-13T01:49:33;100839.03;;;20.53;69.74
29359;BME280;16347;53.232;6.556;2022-09-13T01:52:16;100829.28;;;20.51;70.24
29359;BME280;16347;53.232;6.556;2022-09-13T01:54:53;100836.28;;;20.53;70.14
29359;BME280;16347;53.232;6.556;2022-09-13T01:57:29;100827.47;;;20.63;70.43
29359;BME280;16347;53.232;6.556;2022-09-13T02:00:04;100837.06;;;20.60;69.71
29359;BME280;16347;53.232;6.556;2022-09-13T02:02:42;100831.25;;;20.43;70.44
29359;BME280;16347;53.232;6.556;2022-09-13T02:05:20;100825.22;;;20.53;70.53
29359;BME280;16347;53.232;6.556;2022-09-13T02:07:57;100830.00;;;20.39;70.46
29359;BME280;16347;53.232;6.556;2022-09-13T02:10:33;100832.63;;;20.21;71.44
29359;BME280;16347;53.232;6.556;2022-09-13T02:13:05;100831.34;;;20.30;71.58
29359;BME280;16347;53.232;6.556;2022-09-13T02:15:40;100839.63;;;20.30;72.17
29359;BME280;16347;53.232;6.556;2022-09-13T02:18:16;100835.16;;;20.23;72.52
29359;BME280;16347;53.232;6.556;2022-09-13T02:20:51;100836.47;;;20.27;72.33
29359;BME280;16347;53.232;6.556;2022-09-13T02:23:27;100829.72;;;20.10;72.73
29359;BME280;16347;53.232;6.556;2022-09-13T02:25:59;100824.13;;;20.29;72.48
29359;BME280;16347;53.232;6.556;2022-09-13T02:28:36;100827.34;;;20.20;72.41
29359;BME280;16347;53.232;6.556;2022-09-13T02:31:07;100823.31;;;20.16;72.51
29359;BME280;16347;53.232;6.556;2022-09-13T02:33:39;100821.97;;;20.25;72.70
29359;BME280;16347;53.232;6.556;2022-09-13T02:36:13;100829.34;;;20.44;72.40
29359;BME280;16347;53.232;6.556;2022-09-13T02:38:46;100827.28;;;20.33;71.70
29359;BME280;16347;53.232;6.556;2022-09-13T02:41:18;100834.72;;;20.26;72.50
29359;BME280;16347;53.232;6.556;2022-09-13T02:43:56;100837.28;;;20.34;72.52
29359;BME280;16347;53.232;6.556;2022-09-13T02:46:38;100835.03;;;20.49;72.57
29359;BME280;16347;53.232;6.556;2022-09-13T02:49:14;100834.97;;;20.56;72.63
29359;BME280;16347;53.232;6.556;2022-09-13T02:51:54;100841.41;;;20.50;72.48
29359;BME280;16347;53.232;6.556;2022-09-13T02:54:29;100838.97;;;20.60;72.83
29359;BME280;16347;53.232;6.556;2022-09-13T02:57:02;100838.06;;;20.66;72.55
29359;BME280;16347;53.232;6.556;2022-09-13T02:59:31;100844.13;;;20.81;72.13
29359;BME280;16347;53.232;6.556;2022-09-13T03:02:03;100853.22;;;20.88;71.66
29359;BME280;16347;53.232;6.556;2022-09-13T03:04:33;100858.63;;;20.76;71.77
29359;BME280;16347;53.232;6.556;2022-09-13T03:07:07;100854.94;;;20.82;71.73
29359;BME280;16347;53.232;6.556;2022-09-13T03:09:39;100854.69;;;20.90;72.01
29359;BME280;16347;53.232;6.556;2022-09-13T03:15:07;100853.56;;;20.98;70.13
29359;BME280;16347;53.232;6.556;2022-09-13T03:17:46;100850.53;;;20.99;69.80
29359;BME280;16347;53.232;6.556;2022-09-13T03:20:23;100853.56;;;20.98;69.25
29359;BME280;16347;53.232;6.556;2022-09-13T03:23:12;100860.06;;;21.10;69.40
29359;BME280;16347;53.232;6.556;2022-09-13T03:26:04;100851.41;;;21.00;69.66
29359;BME280;16347;53.232;6.556;2022-09-13T03:28:39;100850.94;;;21.03;69.28
29359;BME280;16347;53.232;6.556;2022-09-13T03:31:13;100860.94;;;21.04;69.40
29359;BME280;16347;53.232;6.556;2022-09-13T03:33:51;100862.81;;;21.10;69.44
29359;BME280;16347;53.232;6.556;2022-09-13T03:36:28;100861.09;;;21.09;69.44
29359;BME280;16347;53.232;6.556;2022-09-13T03:39:01;100863.44;;;21.12;69.84
29359;BME280;16347;53.232;6.556;2022-09-13T03:41:43;100849.88;;;21.04;69.54
29359;BME280;16347;53.232;6.556;2022-09-13T03:44:16;100858.28;;;20.91;69.53
29359;BME280;16347;53.232;6.556;2022-09-13T03:46:47;100862.31;;;20.95;69.59
29359;BME280;16347;53.232;6.556;2022-09-13T03:49:18;100860.16;;;20.97;69.27
29359;BME280;16347;53.232;6.556;2022-09-13T03:51:49;100861.00;;;20.97;69.44
29359;BME280;16347;53.232;6.556;2022-09-13T03:54:21;100857.53;;;21.02;69.27
29359;BME280;16347;53.232;6.556;2022-09-13T03:57:10;100864.56;;;21.05;68.75
29359;BME280;16347;53.232;6.556;2022-09-13T03:59:41;100861.50;;;20.88;69.21
29359;BME280;16347;53.232;6.556;2022-09-13T04:02:10;100861.06;;;20.91;68.54
29359;BME280;16347;53.232;6.556;2022-09-13T04:04:39;100865.06;;;20.95;68.79
29359;BME280;16347;53.232;6.556;2022-09-13T04:07:10;100863.03;;;20.84;68.29
29359;BME280;16347;53.232;6.556;2022-09-13T04:09:39;100862.84;;;20.79;68.76
29359;BME280;16347;53.232;6.556;2022-09-13T04:12:08;100869.41;;;20.84;68.25
29359;BME280;16347;53.232;6.556;2022-09-13T04:14:36;100873.03;;;20.85;68.41
29359;BME280;16347;53.232;6.556;2022-09-13T04:17:05;100875.81;;;20.78;68.76
29359;BME280;16347;53.232;6.556;2022-09-13T04:19:33;100873.53;;;20.69;68.97
29359;BME280;16347;53.232;6.556;2022-09-13T04:22:01;100870.88;;;20.56;68.93
29359;BME280;16347;53.232;6.556;2022-09-13T04:24:30;100862.94;;;20.66;68.90
29359;BME280;16347;53.232;6.556;2022-09-13T04:27:00;100860.28;;;20.53;69.54
29359;BME280;16347;53.232;6.556;2022-09-13T04:29:28;100870.44;;;20.59;69.57
29359;BME280;16347;53.232;6.556;2022-09-13T04:31:57;100862.94;;;20.66;69.54
29359;BME280;16347;53.232;6.556;2022-09-13T04:34:26;100856.97;;;20.69;69.61
29359;BME280;16347;53.232;6.556;2022-09-13T04:36:54;100865.19;;;20.75;69.91
29359;BME280;16347;53.232;6.556;2022-09-13T04:39:22;100867.50;;;20.78;68.88
29359;BME280;16347;53.232;6.556;2022-09-13T04:41:50;100875.59;;;20.80;69.09
29359;BME280;16347;53.232;6.556;2022-09-13T04:44:22;100870.28;;;20.78;69.22
29359;BME280;16347;53.232;6.556;2022-09-13T04:46:50;100866.91;;;20.76;68.95
29359;BME280;16347;53.232;6.556;2022-09-13T04:49:18;100872.88;;;20.73;69.60
29359;BME280;16347;53.232;6.556;2022-09-13T04:51:47;100875.19;;;20.76;69.30
29359;BME280;16347;53.232;6.556;2022-09-13T04:54:16;100869.78;;;20.63;68.98
29359;BME280;16347;53.232;6.556;2022-09-13T04:56:45;100869.47;;;20.78;68.79
29359;BME280;16347;53.232;6.556;2022-09-13T04:59:13;100877.50;;;20.79;69.37
29359;BME280;16347;53.232;6.556;2022-09-13T05:01:42;100875.09;;;20.65;69.05
29359;BME280;16347;53.232;6.556;2022-09-13T05:04:11;100873.59;;;20.62;69.44
29359;BME280;16347;53.232;6.556;2022-09-13T05:06:39;100883.78;;;20.68;69.51
29359;BME280;16347;53.232;6.556;2022-09-13T05:09:11;100880.44;;;20.60;69.87
29359;BME280;16347;53.232;6.556;2022-09-13T05:11:40;100892.50;;;20.65;69.26
29359;BME280;16347;53.232;6.556;2022-09-13T05:14:09;100900.63;;;20.60;69.71
29359;BME280;16347;53.232;6.556;2022-09-13T05:16:37;100897.19;;;20.65;70.34
29359;BME280;16347;53.232;6.556;2022-09-13T05:19:08;100897.19;;;20.65;70.16
29359;BME280;16347;53.232;6.556;2022-09-13T05:21:36;100885.50;;;20.63;69.73
29359;BME280;16347;53.232;6.556;2022-09-13T05:24:04;100904.38;;;20.66;69.75
29359;BME280;16347;53.232;6.556;2022-09-13T05:26:32;100898.88;;;20.66;70.13
29359;BME280;16347;53.232;6.556;2022-09-13T05:29:03;100899.31;;;20.63;69.50
29359;BME280;16347;53.232;6.556;2022-09-13T05:31:37;100908.28;;;20.58;69.49
29359;BME280;16347;53.232;6.556;2022-09-13T05:34:10;100908.72;;;20.55;69.79
29359;BME280;16347;53.232;6.556;2022-09-13T05:36:41;100897.84;;;20.60;69.52
29359;BME280;16347;53.232;6.556;2022-09-13T05:39:14;100908.41;;;20.70;69.72
29359;BME280;16347;53.232;6.556;2022-09-13T05:42:03;100919.88;;;20.73;68.90
29359;BME280;16347;53.232;6.556;2022-09-13T05:44:34;100915.19;;;20.74;68.68
29359;BME280;16347;53.232;6.556;2022-09-13T05:47:05;100914.50;;;20.78;68.65
29359;BME280;16347;53.232;6.556;2022-09-13T05:49:35;100909.38;;;20.82;68.64
29359;BME280;16347;53.232;6.556;2022-09-13T05:52:23;100905.78;;;20.81;68.44
29359;BME280;16347;53.232;6.556;2022-09-13T05:54:52;100906.78;;;20.87;68.33
29359;BME280;16347;53.232;6.556;2022-09-13T05:57:20;100909.78;;;20.85;68.32
29359;BME280;16347;53.232;6.556;2022-09-13T05:59:50;100914.63;;;20.90;68.45
29359;BME280;16347;53.232;6.556;2022-09-13T06:02:18;100914.19;;;20.93;68.59
29359;BME280;16347;53.232;6.556;2022-09-13T06:04:48;100916.75;;;20.94;68.34
29359;BME280;16347;53.232;6.556;2022-09-13T06:07:19;100915.88;;;20.94;68.08
29359;BME280;16347;53.232;6.556;2022-09-13T06:09:50;100922.88;;;20.96;68.25
29359;BME280;16347;53.232;6.556;2022-09-13T06:12:23;100920.50;;;21.00;68.12
29359;BME280;16347;53.232;6.556;2022-09-13T06:14:53;100926.97;;;21.19;67.37
29359;BME280;16347;53.232;6.556;2022-09-13T06:17:24;100925.59;;;21.03;67.49
29359;BME280;16347;53.232;6.556;2022-09-13T06:19:56;100926.75;;;20.89;67.72
29359;BME280;16347;53.232;6.556;2022-09-13T06:22:26;100922.78;;;20.85;68.79
29359;BME280;16347;53.232;6.556;2022-09-13T06:25:01;100924.44;;;20.86;68.43
29359;BME280;16347;53.232;6.556;2022-09-13T06:27:31;100930.81;;;20.86;69.19
29359;BME280;16347;53.232;6.556;2022-09-13T06:30:01;100925.09;;;20.88;68.64
29359;BME280;16347;53.232;6.556;2022-09-13T06:32:30;100921.88;;;20.91;68.64
29359;BME280;16347;53.232;6.556;2022-09-13T06:35:02;100929.06;;;20.92;69.17
29359;BME280;16347;53.232;6.556;2022-09-13T06:37:32;100925.91;;;20.88;69.18
29359;BME280;16347;53.232;6.556;2022-09-13T06:40:03;100928.66;;;20.95;68.82
29359;BME280;16347;53.232;6.556;2022-09-13T06:42:34;100927.09;;;20.99;69.17
29359;BME280;16347;53.232;6.556;2022-09-13T06:45:05;100928.81;;;21.00;68.86
29359;BME280;16347;53.232;6.556;2022-09-13T06:47:36;100917.81;;;20.93;67.43
29359;BME280;16347;53.232;6.556;2022-09-13T06:50:09;100921.81;;;20.97;67.68
29359;BME280;16347;53.232;6.556;2022-09-13T06:52:38;100929.41;;;21.02;66.85
29359;BME280;16347;53.232;6.556;2022-09-13T06:55:08;100923.88;;;21.02;66.71
29359;BME280;16347;53.232;6.556;2022-09-13T06:57:38;100919.44;;;21.01;65.94
29359;BME280;16347;53.232;6.556;2022-09-13T07:00:11;100930.66;;;21.06;66.54
29359;BME280;16347;53.232;6.556;2022-09-13T07:02:41;100931.16;;;20.96;66.14
29359;BME280;16347;53.232;6.556;2022-09-13T07:05:14;100931.63;;;20.93;66.10
29359;BME280;16347;53.232;6.556;2022-09-13T07:07:46;100931.22;;;20.90;65.03
29359;BME280;16347;53.232;6.556;2022-09-13T07:10:17;100935.44;;;20.92;64.97
29359;BME280;16347;53.232;6.556;2022-09-13T07:12:50;100945.84;;;20.97;63.66
29359;BME280;16347;53.232;6.556;2022-09-13T07:15:20;100943.47;;;21.01;63.66
29359;BME280;16347;53.232;6.556;2022-09-13T07:17:49;100941.31;;;21.03;63.74
29359;BME280;16347;53.232;6.556;2022-09-13T07:20:21;100948.56;;;21.04;63.76
29359;BME280;16347;53.232;6.556;2022-09-13T07:22:52;100949.81;;;21.08;62.91
29359;BME280;16347;53.232;6.556;2022-09-13T07:25:23;100955.38;;;21.01;62.41
29359;BME280;16347;53.232;6.556;2022-09-13T07:27:53;100950.47;;;21.03;61.13
29359;BME280;16347;53.232;6.556;2022-09-13T07:32:53;100955.16;;;21.03;60.63
29359;BME280;16347;53.232;6.556;2022-09-13T07:35:24;100963.03;;;20.99;61.00
29359;BME280;16347;53.232;6.556;2022-09-13T07:37:55;100964.53;;;21.02;60.83
29359;BME280;16347;53.232;6.556;2022-09-13T07:40:26;100968.34;;;21.01;60.60
29359;BME280;16347;53.232;6.556;2022-09-13T07:42:55;100961.00;;;20.88;60.48
29359;BME280;16347;53.232;6.556;2022-09-13T07:45:25;100969.50;;;20.86;59.97
29359;BME280;16347;53.232;6.556;2022-09-13T07:47:54;100968.09;;;20.77;59.64
29359;BME280;16347;53.232;6.556;2022-09-13T07:50:24;100971.06;;;20.76;60.34
29359;BME280;16347;53.232;6.556;2022-09-13T07:52:53;100966.19;;;20.78;59.85
29359;BME280;16347;53.232;6.556;2022-09-13T07:55:23;100968.13;;;20.71;60.09
29359;BME280;16347;53.232;6.556;2022-09-13T07:57:55;100970.16;;;20.82;60.25
29359;BME280;16347;53.232;6.556;2022-09-13T08:00:24;100969.47;;;20.93;60.84
29359;BME280;16347;53.232;6.556;2022-09-13T08:02:55;100978.41;;;20.95;59.20
29359;BME280;16347;53.232;6.556;2022-09-13T08:05:27;100977.16;;;20.91;57.75
29359;BME280;16347;53.232;6.556;2022-09-13T08:07:56;100980.94;;;20.96;57.00
29359;BME280;16347;53.232;6.556;2022-09-13T08:10:26;100972.31;;;20.80;56.63
29359;BME280;16347;53.232;6.556;2022-09-13T08:12:55;100980.31;;;20.94;56.61
29359;BME280;16347;53.232;6.556;2022-09-13T08:15:24;100983.88;;;21.02;56.76
29359;BME280;16347;53.232;6.556;2022-09-13T08:17:54;100977.50;;;21.01;56.74
29359;BME280;16347;53.232;6.556;2022-09-13T08:20:24;100982.63;;;20.97;57.30
29359;BME280;16347;53.232;6.556;2022-09-13T08:22:55;100985.81;;;21.01;56.73
29359;BME280;16347;53.232;6.556;2022-09-13T08:25:25;100994.47;;;21.11;56.59
29359;BME280;16347;53.232;6.556;2022-09-13T08:27:53;100993.25;;;21.01;56.89
29359;BME280;16347;53.232;6.556;2022-09-13T08:30:23;100986.66;;;21.02;55.66
29359;BME280;16347;53.232;6.556;2022-09-13T08:32:59;100982.13;;;21.07;54.89
29359;BME280;16347;53.232;6.556;2022-09-13T08:35:30;100993.91;;;20.96;53.48
29359;BME280;16347;53.232;6.556;2022-09-13T08:38:01;100992.84;;;20.97;52.65
29359;BME280;16347;53.232;6.556;2022-09-13T08:40:37;100986.69;;;20.95;52.70
29359;BME280;16347;53.232;6.556;2022-09-13T08:43:19;100992.84;;;20.97;51.86
29359;BME280;16347;53.232;6.556;2022-09-13T08:45:58;100984.34;;;20.92;51.00
29359;BME280;16347;53.232;6.556;2022-09-13T08:48:34;100991.38;;;20.94;50.72
29359;BME280;16347;53.232;6.556;2022-09-13T08:51:21;100996.94;;;20.88;50.68
29359;BME280;16347;53.232;6.556;2022-09-13T08:53:54;100989.06;;;20.91;49.74
29359;BME280;16347;53.232;6.556;2022-09-13T08:56:35;100989.88;;;20.92;51.56
29359;BME280;16347;53.232;6.556;2022-09-13T08:59:23;100976.09;;;20.85;49.80
29359;BME280;16347;53.232;6.556;2022-09-13T09:02:01;100990.94;;;20.97;50.66
29359;BME280;16347;53.232;6.556;2022-09-13T09:04:39;100991.50;;;21.06;50.18
29359;BME280;16347;53.232;6.556;2022-09-13T09:07:15;100994.31;;;20.99;50.55
29359;BME280;16347;53.232;6.556;2022-09-13T09:09:52;100999.03;;;20.92;50.94
29359;BME280;16347;53.232;6.556;2022-09-13T09:12:30;101004.06;;;21.02;49.60
29359;BME280;16347;53.232;6.556;2022-09-13T09:15:07;100998.47;;;21.09;50.06
29359;BME280;16347;53.232;6.556;2022-09-13T09:17:47;101013.59;;;21.13;49.27
29359;BME280;16347;53.232;6.556;2022-09-13T09:20:25;101006.94;;;21.20;49.50
29359;BME280;16347;53.232;6.556;2022-09-13T09:22:58;101001.47;;;21.14;49.24
29359;BME280;16347;53.232;6.556;2022-09-13T09:25:33;101000.63;;;21.13;49.65
29359;BME280;16347;53.232;6.556;2022-09-13T09:28:10;101002.28;;;21.21;49.53
29359;BME280;16347;53.232;6.556;2022-09-13T09:30:48;101013.03;;;21.29;50.22
29359;BME280;16347;53.232;6.556;2022-09-13T09:33:41;101001.81;;;21.24;50.11
29359;BME280;16347;53.232;6.556;2022-09-13T09:36:22;100997.28;;;21.29;49.02
29359;BME280;16347;53.232;6.556;2022-09-13T09:38:56;100997.28;;;21.29;48.73
29359;BME280;16347;53.232;6.556;2022-09-13T09:41:30;100993.47;;;21.30;48.59
29359;BME280;16347;53.232;6.556;2022-09-13T09:44:16;100993.72;;;21.22;48.56
29359;BME280;16347;53.232;6.556;2022-09-13T09:46:49;100990.03;;;21.35;48.07
29359;BME280;16347;53.232;6.556;2022-09-13T09:49:26;100992.94;;;21.40;47.95
29359;BME280;16347;53.232;6.556;2022-09-13T09:52:21;100999.94;;;21.42;47.90
29359;BME280;16347;53.232;6.556;2022-09-13T09:54:59;100992.28;;;21.44;48.85
29359;BME280;16347;53.232;6.556;2022-09-13T09:57:58;100992.84;;;21.53;48.81
29359;BME280;16347;53.232;6.556;2022-09-13T10:00:34;100996.31;;;21.48;49.58
29359;BME280;16347;53.232;6.556;2022-09-13T10:03:14;100999.34;;;21.40;49.85
29359;BME280;16347;53.232;6.556;2022-09-13T10:05:46;100999.84;;;21.31;50.59
29359;BME280;16347;53.232;6.556;2022-09-13T10:08:25;101008.47;;;21.16;50.09
29359;BME280;16347;53.232;6.556;2022-09-13T10:10:58;100997.00;;;21.13;49.82
29359;BME280;16347;53.232;6.556;2022-09-13T10:13:31;100994.81;;;21.21;49.69
29359;BME280;16347;53.232;6.556;2022-09-13T10:16:04;101002.88;;;21.23;49.88
29359;BME280;16347;53.232;6.556;2022-09-13T10:18:35;100999.84;;;21.31;49.26
29359;BME280;16347;53.232;6.556;2022-09-13T10:21:22;100989.06;;;21.47;49.77
29359;BME280;16347;53.232;6.556;2022-09-13T10:24:19;100994.53;;;21.54;49.28
29359;BME280;16347;53.232;6.556;2022-09-13T10:26:52;100996.91;;;21.51;48.60
29359;BME280;16347;53.232;6.556;2022-09-13T10:29:26;100999.72;;;21.44;47.47
29359;BME280;16347;53.232;6.556;2022-09-13T10:31:56;100996.69;;;21.52;47.12
29359;BME280;16347;53.232;6.556;2022-09-13T10:34:30;100987.88;;;21.37;47.45
29359;BME280;16347;53.232;6.556;2022-09-13T10:37:05;100993.63;;;21.35;47.03
29359;BME280;16347;53.232;6.556;2022-09-13T10:39:55;100988.47;;;21.39;46.76
29359;BME280;16347;53.232;6.556;2022-09-13T10:42:28;100992.63;;;21.30;46.13
29359;BME280;16347;53.232;6.556;2022-09-13T10:45:02;100997.56;;;21.46;46.41
29359;BME280;16347;53.232;6.556;2022-09-13T10:47:37;100993.63;;;21.60;46.06
29359;BME280;16347;53.232;6.556;2022-09-13T10:50:19;100992.94;;;21.65;46.32
29359;BME280;16347;53.232;6.556;2022-09-13T10:52:50;100991.09;;;21.59;46.26
29359;BME280;16347;53.232;6.556;2022-09-13T10:55:31;100997.69;;;21.58;47.25
29359;BME280;16347;53.232;6.556;2022-09-13T10:58:17;101000.69;;;21.56;46.44
29359;BME280;16347;53.232;6.556;2022-09-13T11:01:34;100992.94;;;21.65;45.74
29359;BME280;16347;53.232;6.556;2022-09-13T11:07:28;100996.31;;;21.67;44.14
29359;BME280;16347;53.232;6.556;2022-09-13T11:10:05;100994.19;;;21.69;44.33
29359;BME280;16347;53.232;6.556;2022-09-13T11:12:42;100984.66;;;21.83;44.08
29359;BME280;16347;53.232;6.556;2022-09-13T11:15:25;100997.97;;;21.99;43.85
29359;BME280;16347;53.232;6.556;2022-09-13T11:20:55;101002.66;;;21.98;43.40
29359;BME280;16347;53.232;6.556;2022-09-13T11:23:44;101001.13;;;21.78;42.83
29359;BME280;16347;53.232;6.556;2022-09-13T11:26:37;101009.44;;;21.78;42.98
29359;BME280;16347;53.232;6.556;2022-09-13T11:29:19;100992.97;;;21.83;43.60
29359;BME280;16347;53.232;6.556;2022-09-13T11:32:04;101005.03;;;21.95;44.72
29359;BME280;16347;53.232;6.556;2022-09-13T11:34:44;101012.41;;;22.01;46.01
29359;BME280;16347;53.232;6.556;2022-09-13T11:37:33;100996.53;;;21.90;46.14
29359;BME280;16347;53.232;6.556;2022-09-13T11:40:26;100984.53;;;21.96;46.13
29359;BME280;16347;53.232;6.556;2022-09-13T11:43:07;100991.88;;;22.09;47.08
29359;BME280;16347;53.232;6.556;2022-09-13T11:45:50;100989.41;;;22.19;45.62
29359;BME280;16347;53.232;6.556;2022-09-13T11:51:40;101002.34;;;22.25;45.86
29359;BME280;16347;53.232;6.556;2022-09-13T11:54:24;100993.56;;;22.28;44.48
29359;BME280;16347;53.232;6.556;2022-09-13T11:57:01;100997.56;;;22.32;43.69
29359;BME280;16347;53.232;6.556;2022-09-13T11:59:38;100990.50;;;22.36;43.60
29359;BME280;16347;53.232;6.556;2022-09-13T12:02:16;100991.88;;;22.27;44.21
29359;BME280;16347;53.232;6.556;2022-09-13T12:04:52;100988.63;;;22.30;44.18
29359;BME280;16347;53.232;6.556;2022-09-13T12:07:49;100989.84;;;22.34;45.30
29359;BME280;16347;53.232;6.556;2022-09-13T12:10:22;100980.91;;;22.50;44.00
29359;BME280;16347;53.232;6.556;2022-09-13T12:12:55;100975.53;;;22.55;43.06
29359;BME280;16347;53.232;6.556;2022-09-13T12:15:36;100984.00;;;22.42;43.83
29359;BME280;16347;53.232;6.556;2022-09-13T12:18:12;100986.53;;;22.43;44.91
29359;BME280;16347;53.232;6.556;2022-09-13T12:20:47;100978.09;;;22.38;45.46
29359;BME280;16347;53.232;6.556;2022-09-13T12:23:23;100992.47;;;22.47;45.47
29359;BME280;16347;53.232;6.556;2022-09-13T12:25:57;100996.00;;;22.54;45.48
29359;BME280;16347;53.232;6.556;2022-09-13T12:28:33;100996.00;;;22.72;44.86
29359;BME280;16347;53.232;6.556;2022-09-13T12:31:12;100987.69;;;22.72;43.89
29359;BME280;16347;53.232;6.556;2022-09-13T12:33:47;100990.22;;;22.56;44.22
29359;BME280;16347;53.232;6.556;2022-09-13T12:36:48;100997.44;;;22.57;44.52
29359;BME280;16347;53.232;6.556;2022-09-13T12:46:08;100993.13;;;22.61;44.99
29359;BME280;16347;53.232;6.556;2022-09-13T12:49:09;101006.94;;;22.49;44.57
29359;BME280;16347;53.232;6.556;2022-09-13T12:52:01;101001.81;;;22.64;43.71
29359;BME280;16347;53.232;6.556;2022-09-13T12:57:38;100992.28;;;22.78;43.23
29359;BME280;16347;53.232;6.556;2022-09-13T13:00:22;100990.69;;;22.71;43.43
29359;BME280;16347;53.232;6.556;2022-09-13T13:03:02;100993.25;;;22.84;44.16
29359;BME280;16347;53.232;6.556;2022-09-13T13:05:44;100996.56;;;22.92;42.97
29359;BME280;16347;53.232;6.556;2022-09-13T13:08:25;101001.53;;;23.02;42.89
29359;BME280;16347;53.232;6.556;2022-09-13T13:11:02;100993.63;;;22.87;43.04
29359;BME280;16347;53.232;6.556;2022-09-13T13:13:36;100990.25;;;22.85;43.35
29359;BME280;16347;53.232;6.556;2022-09-13T13:16:24;100995.81;;;22.85;42.69
29359;BME280;16347;53.232;6.556;2022-09-13T13:18:58;100987.25;;;22.87;42.73
29359;BME280;16347;53.232;6.556;2022-09-13T13:21:31;100988.81;;;22.83;42.17
29359;BME280;16347;53.232;6.556;2022-09-13T13:27:36;100985.31;;;22.87;42.16
29359;BME280;16347;53.232;6.556;2022-09-13T13:33:27;100982.72;;;23.04;42.29
29359;BME280;16347;53.232;6.556;2022-09-13T13:36:20;100982.75;;;23.16;42.43
29359;BME280;16347;53.232;6.556;2022-09-13T13:38:52;100984.19;;;23.07;41.11
29359;BME280;16347;53.232;6.556;2022-09-13T13:41:48;100976.34;;;23.15;41.48
29359;BME280;16347;53.232;6.556;2022-09-13T13:48:07;100986.53;;;22.91;40.40
29359;BME280;16347;53.232;6.556;2022-09-13T13:51:14;100984.63;;;22.92;39.46
29359;BME280;16347;53.232;6.556;2022-09-13T13:53:46;100979.25;;;23.09;39.64
29359;BME280;16347;53.232;6.556;2022-09-13T13:59:14;100981.50;;;23.41;40.52
29359;BME280;16347;53.232;6.556;2022-09-13T14:01:49;100972.09;;;23.42;40.27
29359;BME280;16347;53.232;6.556;2022-09-13T14:04:46;100964.50;;;23.73;39.98
29359;BME280;16347;53.232;6.556;2022-09-13T14:07:55;100973.41;;;23.52;40.56
29359;BME280;16347;53.232;6.556;2022-09-13T14:10:30;100969.03;;;23.32;40.80
29359;BME280;16347;53.232;6.556;2022-09-13T14:13:20;100960.88;;;23.49;40.54
29359;BME280;16347;53.232;6.556;2022-09-13T14:16:00;100961.22;;;23.64;40.66
29359;BME280;16347;53.232;6.556;2022-09-13T14:18:48;100963.38;;;23.85;40.40
29359;BME280;16347;53.232;6.556;2022-09-13T14:21:24;100962.09;;;23.76;39.22